sensor_id;sensor_type;location;lat;lon;timestamp;pressure;altitude;pressure_sealevel;temperature;humidity
55604;BME280;41468;48.838;9.330;2022-11-25T00:01:14;98251.72;;;4.61;100.00
55604;BME280;41468;48.838;9.330;2022-11-25T00:03:42;98255.16;;;4.50;100.00
55604;BME280;41468;48.838;9.330;2022-11-25T00:06:15;98261.22;;;4.47;100.00
55604;BME280;41468;48.838;9.330;2022-11-25T00:08:44;98262.72;;;4.56;100.00
55604;BME280;41468;48.838;9.330;2022-11-25T00:11:12;98252.75;;;4.48;100.00
55604;BME280;41468;48.838;9.330;2022-11-25T00:13:40;98255.81;;;4.47;100.00
55604;BME280;41468;48.838;9.330;2022-11-25T00:16:12;98265.09;;;4.37;100.00
55604;BME280;41468;48.838;9.330;2022-11-25T00:18:43;98262.50;;;4.40;100.00
55604;BME280;41468;48.838;9.330;2022-11-25T00:21:12;98254.88;;;4.42;100.00
55604;BME280;41468;48.838;9.330;2022-11-25T00:23:39;98253.53;;;4.28;100.00
55604;BME280;41468;48.838;9.330;2022-11-25T00:26:13;98255.59;;;4.31;100.00
55604;BME280;41468;48.838;9.330;2022-11-25T00:28:42;98259.34;;;4.38;100.00
55604;BME280;41468;48.838;9.330;2022-11-25T00:31:12;98252.63;;;4.45;100.00
55604;BME280;41468;48.838;9.330;2022-11-25T00:33:40;98250.59;;;4.41;100.00
55604;BME280;41468;48.838;9.330;2022-11-25T00:36:14;98254.41;;;4.40;100.00
55604;BME280;41468;48.838;9.330;2022-11-25T00:38:41;98257.91;;;4.41;100.00
55604;BME280;41468;48.838;9.330;2022-11-25T00:41:08;98250.25;;;4.43;100.00
55604;BME280;41468;48.838;9.330;2022-11-25T00:43:53;98258.03;;;4.45;100.00
55604;BME280;41468;48.838;9.330;2022-11-25T00:46:43;98251.09;;;4.35;100.00
55604;BME280;41468;48.838;9.330;2022-11-25T00:49:10;98259.88;;;4.32;100.00
55604;BME280;41468;48.838;9.330;2022-11-25T00:51:36;98256.56;;;4.26;100.00
55604;BME280;41468;48.838;9.330;2022-11-25T00:54:08;98246.53;;;4.27;100.00
55604;BME280;41468;48.838;9.330;2022-11-25T00:56:34;98253.66;;;4.31;100.00
55604;BME280;41468;48.838;9.330;2022-11-25T00:59:01;98250.06;;;4.27;100.00
55604;BME280;41468;48.838;9.330;2022-11-25T01:01:28;98257.63;;;4.34;100.00
55604;BME280;41468;48.838;9.330;2022-11-25T01:03:55;98259.88;;;4.32;100.00
55604;BME280;41468;48.838;9.330;2022-11-25T01:06:22;98261.72;;;4.40;100.00
55604;BME280;41468;48.838;9.330;2022-11-25T01:08:49;98266.47;;;4.43;100.00
55604;BME280;41468;48.838;9.330;2022-11-25T01:11:19;98268.06;;;4.44;100.00
55604;BME280;41468;48.838;9.330;2022-11-25T01:13:46;98265.44;;;4.56;100.00
55604;BME280;41468;48.838;9.330;2022-11-25T01:16:16;98266.28;;;4.69;99.87
55604;BME280;41468;48.838;9.330;2022-11-25T01:18:44;98267.91;;;4.70;99.64
55604;BME280;41468;48.838;9.330;2022-11-25T01:21:13;98266.38;;;4.81;99.34
55604;BME280;41468;48.838;9.330;2022-11-25T01:23:41;98267.69;;;4.96;99.55
55604;BME280;41468;48.838;9.330;2022-11-25T01:26:10;98271.78;;;5.02;98.38
55604;BME280;41468;48.838;9.330;2022-11-25T01:28:38;98277.63;;;5.04;97.52
55604;BME280;41468;48.838;9.330;2022-11-25T01:31:19;98269.66;;;4.87;97.26
55604;BME280;41468;48.838;9.330;2022-11-25T01:33:50;98273.75;;;4.72;97.65
55604;BME280;41468;48.838;9.330;2022-11-25T01:36:18;98270.84;;;4.56;98.16
55604;BME280;41468;48.838;9.330;2022-11-25T01:38:50;98259.81;;;4.61;98.65
55604;BME280;41468;48.838;9.330;2022-11-25T01:41:18;98245.41;;;4.57;99.05
55604;BME280;41468;48.838;9.330;2022-11-25T01:44:09;98249.66;;;4.58;99.33
55604;BME280;41468;48.838;9.330;2022-11-25T01:52:16;98250.53;;;4.71;98.93
55604;BME280;41468;48.838;9.330;2022-11-25T01:55:02;98253.75;;;4.64;98.26
55604;BME280;41468;48.838;9.330;2022-11-25T01:57:37;98252.72;;;4.57;98.56
55604;BME280;41468;48.838;9.330;2022-11-25T02:00:07;98248.69;;;4.63;98.34
55604;BME280;41468;48.838;9.330;2022-11-25T02:02:34;98247.50;;;4.73;98.06
55604;BME280;41468;48.838;9.330;2022-11-25T02:05:05;98254.69;;;4.90;97.28
55604;BME280;41468;48.838;9.330;2022-11-25T02:07:39;98242.22;;;4.97;96.72
55604;BME280;41468;48.838;9.330;2022-11-25T02:10:09;98248.28;;;4.94;96.93
55604;BME280;41468;48.838;9.330;2022-11-25T02:12:39;98246.00;;;4.84;97.83
55604;BME280;41468;48.838;9.330;2022-11-25T02:15:06;98256.63;;;4.89;97.88
55604;BME280;41468;48.838;9.330;2022-11-25T02:17:38;98256.66;;;5.01;97.28
55604;BME280;41468;48.838;9.330;2022-11-25T02:20:09;98254.72;;;5.02;96.22
55604;BME280;41468;48.838;9.330;2022-11-25T02:22:49;98253.47;;;4.99;96.66
55604;BME280;41468;48.838;9.330;2022-11-25T02:25:44;98262.06;;;5.01;95.92
55604;BME280;41468;48.838;9.330;2022-11-25T02:28:16;98252.47;;;4.92;95.54
55604;BME280;41468;48.838;9.330;2022-11-25T02:30:44;98260.56;;;4.92;95.84
55604;BME280;41468;48.838;9.330;2022-11-25T02:33:11;98251.03;;;5.06;94.71
55604;BME280;41468;48.838;9.330;2022-11-25T02:35:40;98254.63;;;4.98;94.90
55604;BME280;41468;48.838;9.330;2022-11-25T02:41:10;98254.94;;;4.97;94.46
55604;BME280;41468;48.838;9.330;2022-11-25T02:43:39;98252.00;;;4.90;93.94
55604;BME280;41468;48.838;9.330;2022-11-25T02:46:12;98252.78;;;4.90;93.79
55604;BME280;41468;48.838;9.330;2022-11-25T02:48:47;98262.69;;;4.65;93.48
55604;BME280;41468;48.838;9.330;2022-11-25T02:51:33;98258.78;;;4.75;93.50
55604;BME280;41468;48.838;9.330;2022-11-25T02:54:00;98253.28;;;4.41;93.84
55604;BME280;41468;48.838;9.330;2022-11-25T02:56:29;98249.28;;;4.18;95.37
55604;BME280;41468;48.838;9.330;2022-11-25T02:58:57;98244.34;;;4.50;95.38
55604;BME280;41468;48.838;9.330;2022-11-25T03:01:30;98241.69;;;4.62;94.62
55604;BME280;41468;48.838;9.330;2022-11-25T03:03:58;98250.66;;;4.54;94.83
55604;BME280;41468;48.838;9.330;2022-11-25T03:06:25;98243.88;;;4.69;93.84
55604;BME280;41468;48.838;9.330;2022-11-25T03:08:52;98246.31;;;4.61;93.27
55604;BME280;41468;48.838;9.330;2022-11-25T03:11:19;98234.56;;;4.57;93.14
55604;BME280;41468;48.838;9.330;2022-11-25T03:13:46;98243.28;;;4.63;93.25
55604;BME280;41468;48.838;9.330;2022-11-25T03:16:12;98237.22;;;4.66;92.32
55604;BME280;41468;48.838;9.330;2022-11-25T03:18:39;98234.81;;;4.64;92.24
55604;BME280;41468;48.838;9.330;2022-11-25T03:21:06;98233.44;;;4.58;91.56
55604;BME280;41468;48.838;9.330;2022-11-25T03:23:33;98237.09;;;4.62;92.13
55604;BME280;41468;48.838;9.330;2022-11-25T03:26:04;98232.34;;;4.30;94.46
55604;BME280;41468;48.838;9.330;2022-11-25T03:28:31;98234.03;;;4.22;95.75
55604;BME280;41468;48.838;9.330;2022-11-25T03:30:57;98238.59;;;4.30;95.46
55604;BME280;41468;48.838;9.330;2022-11-25T03:33:24;98229.66;;;4.30;94.89
55604;BME280;41468;48.838;9.330;2022-11-25T03:35:51;98237.81;;;4.21;95.17
55604;BME280;41468;48.838;9.330;2022-11-25T03:38:25;98224.91;;;4.27;94.29
55604;BME280;41468;48.838;9.330;2022-11-25T03:40:52;98225.25;;;4.25;94.52
55604;BME280;41468;48.838;9.330;2022-11-25T03:43:19;98231.03;;;4.15;94.46
55604;BME280;41468;48.838;9.330;2022-11-25T03:45:48;98227.25;;;4.07;94.66
55604;BME280;41468;48.838;9.330;2022-11-25T03:48:18;98223.72;;;4.15;94.88
55604;BME280;41468;48.838;9.330;2022-11-25T03:50:47;98228.75;;;4.26;94.36
55604;BME280;41468;48.838;9.330;2022-11-25T03:53:13;98233.25;;;4.13;94.46
55604;BME280;41468;48.838;9.330;2022-11-25T03:55:40;98227.53;;;4.14;93.97
55604;BME280;41468;48.838;9.330;2022-11-25T03:58:07;98235.97;;;4.13;93.76
55604;BME280;41468;48.838;9.330;2022-11-25T04:00:38;98222.94;;;4.15;93.29
55604;BME280;41468;48.838;9.330;2022-11-25T04:03:05;98229.78;;;4.12;93.54
55604;BME280;41468;48.838;9.330;2022-11-25T04:05:32;98232.34;;;4.09;93.70
55604;BME280;41468;48.838;9.330;2022-11-25T04:07:58;98231.41;;;4.05;94.05
55604;BME280;41468;48.838;9.330;2022-11-25T04:10:25;98228.31;;;3.85;96.48
55604;BME280;41468;48.838;9.330;2022-11-25T04:12:52;98218.78;;;3.88;97.03
55604;BME280;41468;48.838;9.330;2022-11-25T04:15:19;98220.69;;;3.87;97.83
55604;BME280;41468;48.838;9.330;2022-11-25T04:17:46;98223.94;;;3.72;98.77
55604;BME280;41468;48.838;9.330;2022-11-25T04:20:14;98218.59;;;3.54;100.00
55604;BME280;41468;48.838;9.330;2022-11-25T04:22:41;98220.94;;;3.65;99.62
55604;BME280;41468;48.838;9.330;2022-11-25T04:25:08;98223.16;;;3.71;99.06
55604;BME280;41468;48.838;9.330;2022-11-25T04:27:35;98222.16;;;3.76;98.95
55604;BME280;41468;48.838;9.330;2022-11-25T04:30:02;98222.81;;;3.73;98.17
55604;BME280;41468;48.838;9.330;2022-11-25T04:32:29;98216.06;;;3.58;99.53
55604;BME280;41468;48.838;9.330;2022-11-25T04:34:56;98224.47;;;3.57;99.14
55604;BME280;41468;48.838;9.330;2022-11-25T04:37:22;98217.31;;;3.61;98.37
55604;BME280;41468;48.838;9.330;2022-11-25T04:39:49;98219.41;;;3.55;98.29
55604;BME280;41468;48.838;9.330;2022-11-25T04:42:16;98213.22;;;3.46;98.56
55604;BME280;41468;48.838;9.330;2022-11-25T04:45:05;98225.00;;;3.41;98.95
55604;BME280;41468;48.838;9.330;2022-11-25T04:47:48;98214.19;;;3.50;98.99
55604;BME280;41468;48.838;9.330;2022-11-25T04:50:17;98214.66;;;3.52;98.29
55604;BME280;41468;48.838;9.330;2022-11-25T04:52:44;98214.63;;;3.61;97.82
55604;BME280;41468;48.838;9.330;2022-11-25T04:55:11;98214.88;;;3.68;97.61
55604;BME280;41468;48.838;9.330;2022-11-25T04:57:37;98220.66;;;3.58;97.95
55604;BME280;41468;48.838;9.330;2022-11-25T05:00:05;98221.00;;;3.47;99.07
55604;BME280;41468;48.838;9.330;2022-11-25T05:02:32;98223.22;;;3.45;99.56
55604;BME280;41468;48.838;9.330;2022-11-25T05:04:59;98224.81;;;3.46;99.60
55604;BME280;41468;48.838;9.330;2022-11-25T05:07:26;98218.78;;;3.41;100.00
55604;BME280;41468;48.838;9.330;2022-11-25T05:09:54;98225.63;;;3.38;100.00
55604;BME280;41468;48.838;9.330;2022-11-25T05:12:23;98228.97;;;3.35;100.00
55604;BME280;41468;48.838;9.330;2022-11-25T05:14:51;98233.00;;;3.20;100.00
55604;BME280;41468;48.838;9.330;2022-11-25T05:17:20;98227.44;;;3.17;100.00
55604;BME280;41468;48.838;9.330;2022-11-25T05:19:48;98229.34;;;3.16;100.00
55604;BME280;41468;48.838;9.330;2022-11-25T05:22:17;98236.94;;;3.31;100.00
55604;BME280;41468;48.838;9.330;2022-11-25T05:24:44;98240.88;;;3.43;99.23
55604;BME280;41468;48.838;9.330;2022-11-25T05:27:11;98246.31;;;3.72;97.48
55604;BME280;41468;48.838;9.330;2022-11-25T05:29:38;98236.47;;;3.68;97.05
55604;BME280;41468;48.838;9.330;2022-11-25T05:32:05;98227.63;;;3.59;97.27
55604;BME280;41468;48.838;9.330;2022-11-25T05:34:33;98222.09;;;3.46;97.51
55604;BME280;41468;48.838;9.330;2022-11-25T05:37:00;98227.88;;;3.36;98.74
55604;BME280;41468;48.838;9.330;2022-11-25T05:39:27;98230.84;;;3.43;99.44
55604;BME280;41468;48.838;9.330;2022-11-25T05:41:54;98231.47;;;3.58;99.76
55604;BME280;41468;48.838;9.330;2022-11-25T05:44:21;98233.34;;;3.66;99.16
55604;BME280;41468;48.838;9.330;2022-11-25T05:46:58;98235.69;;;3.67;98.65
55604;BME280;41468;48.838;9.330;2022-11-25T05:49:25;98237.13;;;3.73;98.13
55604;BME280;41468;48.838;9.330;2022-11-25T05:51:51;98241.22;;;3.80;97.51
55604;BME280;41468;48.838;9.330;2022-11-25T05:54:18;98245.38;;;3.77;97.75
55604;BME280;41468;48.838;9.330;2022-11-25T05:56:45;98249.28;;;3.88;97.26
55604;BME280;41468;48.838;9.330;2022-11-25T05:59:11;98240.69;;;3.95;96.65
55604;BME280;41468;48.838;9.330;2022-11-25T06:01:38;98244.97;;;3.96;95.53
55604;BME280;41468;48.838;9.330;2022-11-25T06:04:05;98263.09;;;3.95;95.03
55604;BME280;41468;48.838;9.330;2022-11-25T06:06:31;98266.63;;;3.87;95.15
55604;BME280;41468;48.838;9.330;2022-11-25T06:08:58;98265.31;;;3.93;95.02
55604;BME280;41468;48.838;9.330;2022-11-25T06:11:25;98267.09;;;3.81;95.46
55604;BME280;41468;48.838;9.330;2022-11-25T06:13:55;98266.22;;;3.59;96.63
55604;BME280;41468;48.838;9.330;2022-11-25T06:16:22;98271.28;;;3.69;96.41
55604;BME280;41468;48.838;9.330;2022-11-25T06:18:49;98269.53;;;3.73;95.26
55604;BME280;41468;48.838;9.330;2022-11-25T06:21:16;98273.91;;;3.87;94.74
55604;BME280;41468;48.838;9.330;2022-11-25T06:23:43;98269.44;;;3.91;94.51
55604;BME280;41468;48.838;9.330;2022-11-25T06:26:14;98278.88;;;3.76;94.44
55604;BME280;41468;48.838;9.330;2022-11-25T06:28:41;98277.69;;;4.03;97.88
55604;BME280;41468;48.838;9.330;2022-11-25T06:31:18;98276.13;;;3.93;93.87
55604;BME280;41468;48.838;9.330;2022-11-25T06:33:47;98279.56;;;4.03;93.04
55604;BME280;41468;48.838;9.330;2022-11-25T06:36:14;98289.91;;;4.01;92.94
55604;BME280;41468;48.838;9.330;2022-11-25T06:38:45;98282.44;;;4.06;92.02
55604;BME280;41468;48.838;9.330;2022-11-25T06:41:19;98283.97;;;3.78;93.63
55604;BME280;41468;48.838;9.330;2022-11-25T06:43:46;98294.50;;;3.62;93.95
55604;BME280;41468;48.838;9.330;2022-11-25T06:46:15;98291.66;;;3.58;94.85
55604;BME280;41468;48.838;9.330;2022-11-25T06:48:50;98296.19;;;3.75;94.06
55604;BME280;41468;48.838;9.330;2022-11-25T06:51:17;98293.72;;;3.52;94.17
55604;BME280;41468;48.838;9.330;2022-11-25T06:53:43;98299.78;;;3.32;93.88
55604;BME280;41468;48.838;9.330;2022-11-25T06:56:16;98303.63;;;3.31;94.79
55604;BME280;41468;48.838;9.330;2022-11-25T06:58:43;98306.44;;;3.43;95.15
55604;BME280;41468;48.838;9.330;2022-11-25T07:03:39;98311.50;;;3.53;94.66
55604;BME280;41468;48.838;9.330;2022-11-25T07:06:07;98312.47;;;3.58;94.48
55604;BME280;41468;48.838;9.330;2022-11-25T07:08:34;98308.50;;;3.46;94.70
55604;BME280;41468;48.838;9.330;2022-11-25T07:13:44;98318.81;;;3.53;95.50
55604;BME280;41468;48.838;9.330;2022-11-25T07:16:12;98317.84;;;3.58;95.11
55604;BME280;41468;48.838;9.330;2022-11-25T07:18:40;98314.81;;;3.59;95.16
55604;BME280;41468;48.838;9.330;2022-11-25T07:21:12;98316.72;;;3.67;95.21
55604;BME280;41468;48.838;9.330;2022-11-25T07:23:41;98325.44;;;3.73;95.21
55604;BME280;41468;48.838;9.330;2022-11-25T07:26:13;98324.13;;;3.88;94.51
55604;BME280;41468;48.838;9.330;2022-11-25T07:28:41;98331.25;;;4.01;94.91
55604;BME280;41468;48.838;9.330;2022-11-25T07:31:19;98325.22;;;3.95;95.02
55604;BME280;41468;48.838;9.330;2022-11-25T07:33:51;98326.97;;;4.30;96.37
55604;BME280;41468;48.838;9.330;2022-11-25T07:36:18;98327.84;;;4.13;95.45
55604;BME280;41468;48.838;9.330;2022-11-25T07:38:45;98321.13;;;4.19;96.23
55604;BME280;41468;48.838;9.330;2022-11-25T07:41:18;98331.94;;;4.19;96.13
55604;BME280;41468;48.838;9.330;2022-11-25T07:43:50;98328.84;;;3.99;97.11
55604;BME280;41468;48.838;9.330;2022-11-25T07:46:20;98338.06;;;3.98;98.00
55604;BME280;41468;48.838;9.330;2022-11-25T07:48:54;98342.47;;;4.12;97.97
55604;BME280;41468;48.838;9.330;2022-11-25T07:51:30;98347.59;;;4.05;98.40
55604;BME280;41468;48.838;9.330;2022-11-25T07:53:59;98356.25;;;4.19;98.44
55604;BME280;41468;48.838;9.330;2022-11-25T07:56:28;98345.28;;;4.24;98.81
55604;BME280;41468;48.838;9.330;2022-11-25T07:58:56;98348.09;;;4.36;98.10
55604;BME280;41468;48.838;9.330;2022-11-25T08:01:23;98350.63;;;4.41;98.24
55604;BME280;41468;48.838;9.330;2022-11-25T08:03:52;98353.63;;;4.49;98.11
55604;BME280;41468;48.838;9.330;2022-11-25T08:06:20;98364.63;;;4.43;99.01
55604;BME280;41468;48.838;9.330;2022-11-25T08:08:48;98357.66;;;4.63;99.41
55604;BME280;41468;48.838;9.330;2022-11-25T08:11:20;98360.19;;;4.69;99.02
55604;BME280;41468;48.838;9.330;2022-11-25T08:13:47;98371.59;;;4.74;98.54
55604;BME280;41468;48.838;9.330;2022-11-25T08:16:16;98371.50;;;4.92;98.25
55604;BME280;41468;48.838;9.330;2022-11-25T08:18:43;98366.34;;;4.99;97.24
55604;BME280;41468;48.838;9.330;2022-11-25T08:21:12;98361.31;;;4.88;97.72
55604;BME280;41468;48.838;9.330;2022-11-25T08:23:40;98364.69;;;4.85;98.06
55604;BME280;41468;48.838;9.330;2022-11-25T08:26:12;98370.50;;;4.96;97.72
55604;BME280;41468;48.838;9.330;2022-11-25T08:28:39;98369.00;;;4.86;97.79
55604;BME280;41468;48.838;9.330;2022-11-25T08:31:13;98368.72;;;5.00;97.65
55604;BME280;41468;48.838;9.330;2022-11-25T08:33:41;98373.41;;;5.12;97.15
55604;BME280;41468;48.838;9.330;2022-11-25T08:36:09;98366.22;;;5.16;96.86
55604;BME280;41468;48.838;9.330;2022-11-25T08:38:36;98367.72;;;5.26;96.39
55604;BME280;41468;48.838;9.330;2022-11-25T08:41:11;98358.75;;;5.34;96.27
55604;BME280;41468;48.838;9.330;2022-11-25T08:43:39;98353.31;;;5.55;95.41
55604;BME280;41468;48.838;9.330;2022-11-25T08:46:11;98348.25;;;5.53;96.31
55604;BME280;41468;48.838;9.330;2022-11-25T08:48:38;98350.72;;;5.59;96.72
55604;BME280;41468;48.838;9.330;2022-11-25T08:51:17;98355.94;;;5.64;96.65
55604;BME280;41468;48.838;9.330;2022-11-25T08:53:45;98360.25;;;5.65;96.15
55604;BME280;41468;48.838;9.330;2022-11-25T08:56:12;98366.16;;;5.79;96.08
55604;BME280;41468;48.838;9.330;2022-11-25T08:58:40;98364.03;;;5.85;95.43
55604;BME280;41468;48.838;9.330;2022-11-25T09:01:07;98374.47;;;5.95;95.64
55604;BME280;41468;48.838;9.330;2022-11-25T09:03:36;98370.31;;;6.10;95.04
55604;BME280;41468;48.838;9.330;2022-11-25T09:06:05;98372.22;;;6.09;93.57
55604;BME280;41468;48.838;9.330;2022-11-25T09:08:32;98373.38;;;6.08;93.57
55604;BME280;41468;48.838;9.330;2022-11-25T09:10:59;98376.34;;;6.15;93.50
55604;BME280;41468;48.838;9.330;2022-11-25T09:13:26;98373.16;;;6.13;93.29
55604;BME280;41468;48.838;9.330;2022-11-25T09:15:53;98379.16;;;6.44;91.59
55604;BME280;41468;48.838;9.330;2022-11-25T09:18:20;98379.50;;;6.42;92.49
55604;BME280;41468;48.838;9.330;2022-11-25T09:20:52;98382.47;;;6.37;91.15
55604;BME280;41468;48.838;9.330;2022-11-25T09:23:19;98386.06;;;6.41;90.48
55604;BME280;41468;48.838;9.330;2022-11-25T09:25:53;98392.63;;;6.40;90.44
55604;BME280;41468;48.838;9.330;2022-11-25T09:28:21;98385.50;;;6.60;89.47
55604;BME280;41468;48.838;9.330;2022-11-25T09:30:48;98395.56;;;6.59;89.58
55604;BME280;41468;48.838;9.330;2022-11-25T09:33:16;98401.88;;;6.63;89.99
55604;BME280;41468;48.838;9.330;2022-11-25T09:35:43;98392.38;;;6.82;88.83
55604;BME280;41468;48.838;9.330;2022-11-25T09:38:09;98408.44;;;6.99;87.91
55604;BME280;41468;48.838;9.330;2022-11-25T09:40:48;98395.66;;;7.12;87.81
55604;BME280;41468;48.838;9.330;2022-11-25T09:46:53;98401.44;;;7.39;86.20
55604;BME280;41468;48.838;9.330;2022-11-25T09:52:47;98403.44;;;7.54;85.07
55604;BME280;41468;48.838;9.330;2022-11-25T09:55:23;98409.09;;;7.61;85.90
55604;BME280;41468;48.838;9.330;2022-11-25T09:58:05;98405.28;;;7.50;86.47
55604;BME280;41468;48.838;9.330;2022-11-25T10:00:41;98404.19;;;7.67;86.89
55604;BME280;41468;48.838;9.330;2022-11-25T10:03:14;98402.72;;;7.69;86.37
55604;BME280;41468;48.838;9.330;2022-11-25T10:05:46;98397.28;;;7.69;86.37
55604;BME280;41468;48.838;9.330;2022-11-25T10:08:21;98396.59;;;7.72;86.34
55604;BME280;41468;48.838;9.330;2022-11-25T10:10:59;98406.94;;;7.67;84.88
55604;BME280;41468;48.838;9.330;2022-11-25T10:16:33;98399.06;;;7.78;85.10
55604;BME280;41468;48.838;9.330;2022-11-25T10:21:43;98400.75;;;7.82;85.92
55604;BME280;41468;48.838;9.330;2022-11-25T10:24:13;98393.59;;;7.90;84.48
55604;BME280;41468;48.838;9.330;2022-11-25T10:26:42;98397.50;;;7.92;83.46
55604;BME280;41468;48.838;9.330;2022-11-25T10:31:41;98409.19;;;7.93;83.38
55604;BME280;41468;48.838;9.330;2022-11-25T10:36:47;98414.03;;;8.00;84.56
55604;BME280;41468;48.838;9.330;2022-11-25T10:39:24;98401.66;;;8.02;85.87
55604;BME280;41468;48.838;9.330;2022-11-25T10:41:59;98399.59;;;8.11;85.93
55604;BME280;41468;48.838;9.330;2022-11-25T10:44:31;98403.88;;;8.12;87.33
55604;BME280;41468;48.838;9.330;2022-11-25T10:47:34;98401.50;;;8.11;88.09
55604;BME280;41468;48.838;9.330;2022-11-25T10:52:37;98413.72;;;8.17;89.52
55604;BME280;41468;48.838;9.330;2022-11-25T10:55:13;98401.69;;;8.18;90.21
55604;BME280;41468;48.838;9.330;2022-11-25T10:57:42;98411.94;;;8.25;91.14
55604;BME280;41468;48.838;9.330;2022-11-25T11:00:31;98414.34;;;8.26;90.76
55604;BME280;41468;48.838;9.330;2022-11-25T11:03:11;98418.22;;;8.25;89.66
55604;BME280;41468;48.838;9.330;2022-11-25T11:05:49;98414.75;;;8.12;91.09
55604;BME280;41468;48.838;9.330;2022-11-25T11:08:42;98410.00;;;8.09;91.86
55604;BME280;41468;48.838;9.330;2022-11-25T11:11:16;98409.84;;;8.18;89.55
55604;BME280;41468;48.838;9.330;2022-11-25T11:13:44;98409.66;;;8.11;89.54
55604;BME280;41468;48.838;9.330;2022-11-25T11:16:25;98416.25;;;8.10;90.47
55604;BME280;41468;48.838;9.330;2022-11-25T11:18:54;98413.84;;;8.08;89.02
55604;BME280;41468;48.838;9.330;2022-11-25T11:23:50;98419.59;;;8.19;89.42
55604;BME280;41468;48.838;9.330;2022-11-25T11:26:26;98430.38;;;8.15;88.67
55604;BME280;41468;48.838;9.330;2022-11-25T11:28:58;98430.47;;;8.19;88.67
55604;BME280;41468;48.838;9.330;2022-11-25T11:31:32;98442.75;;;8.13;90.05
55604;BME280;41468;48.838;9.330;2022-11-25T11:37:11;98463.28;;;8.26;95.00
55604;BME280;41468;48.838;9.330;2022-11-25T11:40:02;98463.91;;;8.19;95.59
55604;BME280;41468;48.838;9.330;2022-11-25T12:02:14;98478.22;;;8.32;95.25
55604;BME280;41468;48.838;9.330;2022-11-25T12:12:44;98492.19;;;8.31;98.71
55604;BME280;41468;48.838;9.330;2022-11-25T12:17:58;98487.88;;;8.30;99.08
55604;BME280;41468;48.838;9.330;2022-11-25T12:20:44;98486.00;;;8.18;99.41
55604;BME280;41468;48.838;9.330;2022-11-25T12:23:26;98490.22;;;8.15;99.94
55604;BME280;41468;48.838;9.330;2022-11-25T12:26:01;98491.84;;;8.04;100.00
55604;BME280;41468;48.838;9.330;2022-11-25T12:28:43;98481.53;;;7.97;100.00
55604;BME280;41468;48.838;9.330;2022-11-25T12:31:21;98486.91;;;7.94;100.00
55604;BME280;41468;48.838;9.330;2022-11-25T12:36:42;98494.28;;;7.93;100.00
55604;BME280;41468;48.838;9.330;2022-11-25T12:39:20;98503.13;;;7.90;100.00
55604;BME280;41468;48.838;9.330;2022-11-25T12:41:53;98498.22;;;7.96;100.00
55604;BME280;41468;48.838;9.330;2022-11-25T12:47:09;98505.66;;;8.11;100.00
55604;BME280;41468;48.838;9.330;2022-11-25T12:49:46;98507.56;;;8.11;100.00
55604;BME280;41468;48.838;9.330;2022-11-25T12:52:41;98509.41;;;8.07;100.00
55604;BME280;41468;48.838;9.330;2022-11-25T12:55:16;98509.19;;;8.00;100.00
55604;BME280;41468;48.838;9.330;2022-11-25T13:03:21;98526.84;;;8.06;100.00
55604;BME280;41468;48.838;9.330;2022-11-25T13:14:29;98558.34;;;8.07;100.00
55604;BME280;41468;48.838;9.330;2022-11-25T13:17:10;98562.19;;;8.06;100.00
55604;BME280;41468;48.838;9.330;2022-11-25T13:19:38;98559.94;;;8.08;100.00
55604;BME280;41468;48.838;9.330;2022-11-25T13:22:24;98559.53;;;7.93;100.00
55604;BME280;41468;48.838;9.330;2022-11-25T13:24:58;98571.78;;;7.87;100.00
55604;BME280;41468;48.838;9.330;2022-11-25T13:29:59;98570.19;;;7.86;100.00
55604;BME280;41468;48.838;9.330;2022-11-25T13:32:29;98578.09;;;7.91;100.00
55604;BME280;41468;48.838;9.330;2022-11-25T13:37:48;98581.28;;;7.93;100.00
55604;BME280;41468;48.838;9.330;2022-11-25T13:42:49;98581.38;;;7.97;100.00
55604;BME280;41468;48.838;9.330;2022-11-25T13:45:36;98589.19;;;7.99;100.00
55604;BME280;41468;48.838;9.330;2022-11-25T13:48:11;98595.97;;;8.05;100.00
55604;BME280;41468;48.838;9.330;2022-11-25T13:50:39;98590.31;;;8.10;100.00
55604;BME280;41468;48.838;9.330;2022-11-25T13:53:33;98591.53;;;8.12;100.00
55604;BME280;41468;48.838;9.330;2022-11-25T13:56:30;98604.69;;;8.10;100.00
55604;BME280;41468;48.838;9.330;2022-11-25T14:02:23;98605.00;;;8.21;100.00
55604;BME280;41468;48.838;9.330;2022-11-25T14:04:43;98607.47;;;8.26;100.00
55604;BME280;41468;48.838;9.330;2022-11-25T14:07:33;98604.53;;;8.31;100.00
55604;BME280;41468;48.838;9.330;2022-11-25T14:12:55;98612.00;;;8.47;100.00
55604;BME280;41468;48.838;9.330;2022-11-25T14:15:43;98614.16;;;8.29;100.00
55604;BME280;41468;48.838;9.330;2022-11-25T14:21:41;98630.47;;;8.29;100.00
55604;BME280;41468;48.838;9.330;2022-11-25T14:26:44;98633.75;;;8.47;100.00
55604;BME280;41468;48.838;9.330;2022-11-25T14:32:07;98639.13;;;8.59;100.00
55604;BME280;41468;48.838;9.330;2022-11-25T14:34:40;98639.38;;;8.54;100.00
55604;BME280;41468;48.838;9.330;2022-11-25T14:39:55;98637.59;;;8.46;100.00
55604;BME280;41468;48.838;9.330;2022-11-25T14:42:26;98645.09;;;8.36;100.00
55604;BME280;41468;48.838;9.330;2022-11-25T14:44:57;98645.66;;;8.42;100.00
55604;BME280;41468;48.838;9.330;2022-11-25T14:47:26;98647.81;;;8.36;100.00
55604;BME280;41468;48.838;9.330;2022-11-25T14:49:55;98648.25;;;8.38;100.00
55604;BME280;41468;48.838;9.330;2022-11-25T14:52:44;98656.88;;;8.53;100.00
55604;BME280;41468;48.838;9.330;2022-11-25T14:55:23;98657.56;;;8.50;100.00
55604;BME280;41468;48.838;9.330;2022-11-25T14:57:52;98664.25;;;8.40;100.00
55604;BME280;41468;48.838;9.330;2022-11-25T15:00:19;98663.47;;;8.39;100.00
55604;BME280;41468;48.838;9.330;2022-11-25T15:02:59;98662.69;;;8.39;100.00
55604;BME280;41468;48.838;9.330;2022-11-25T15:05:34;98660.28;;;8.37;100.00
55604;BME280;41468;48.838;9.330;2022-11-25T15:10:38;98672.09;;;8.42;100.00
55604;BME280;41468;48.838;9.330;2022-11-25T15:13:35;98677.28;;;8.34;100.00
55604;BME280;41468;48.838;9.330;2022-11-25T15:16:20;98679.34;;;8.25;100.00
55604;BME280;41468;48.838;9.330;2022-11-25T15:18:51;98678.66;;;8.40;100.00
55604;BME280;41468;48.838;9.330;2022-11-25T15:21:34;98677.09;;;8.39;100.00
55604;BME280;41468;48.838;9.330;2022-11-25T15:24:25;98681.59;;;8.35;100.00
55604;BME280;41468;48.838;9.330;2022-11-25T15:26:55;98690.44;;;8.32;100.00